sensor_id;sensor_type;location;lat;lon;timestamp;temperature;humidity
14908;DHT22;7545;52.092;7.006;2023-07-20T00:01:13;18.40;99.90
14908;DHT22;7545;52.092;7.006;2023-07-20T00:03:39;18.50;99.90
14908;DHT22;7545;52.092;7.006;2023-07-20T00:06:05;18.50;99.90
14908;DHT22;7545;52.092;7.006;2023-07-20T00:08:30;18.40;99.90
14908;DHT22;7545;52.092;7.006;2023-07-20T00:10:56;18.40;99.90
14908;DHT22;7545;52.092;7.006;2023-07-20T00:13:22;18.40;99.90
14908;DHT22;7545;52.092;7.006;2023-07-20T00:15:47;18.40;99.90
14908;DHT22;7545;52.092;7.006;2023-07-20T00:18:13;18.40;99.90
14908;DHT22;7545;52.092;7.006;2023-07-20T00:20:39;18.40;99.90
14908;DHT22;7545;52.092;7.006;2023-07-20T00:23:05;18.30;99.90
14908;DHT22;7545;52.092;7.006;2023-07-20T00:25:30;18.30;99.90
14908;DHT22;7545;52.092;7.006;2023-07-20T00:27:56;18.30;99.90
14908;DHT22;7545;52.092;7.006;2023-07-20T00:30:22;18.30;99.90
14908;DHT22;7545;52.092;7.006;2023-07-20T00:32:47;18.30;99.90
14908;DHT22;7545;52.092;7.006;2023-07-20T00:35:13;18.30;99.90
14908;DHT22;7545;52.092;7.006;2023-07-20T00:37:39;18.30;99.90
14908;DHT22;7545;52.092;7.006;2023-07-20T00:40:06;18.30;99.90
14908;DHT22;7545;52.092;7.006;2023-07-20T00:42:34;18.30;99.90
14908;DHT22;7545;52.092;7.006;2023-07-20T00:45:00;18.30;99.90
14908;DHT22;7545;52.092;7.006;2023-07-20T00:47:27;18.20;99.90
14908;DHT22;7545;52.092;7.006;2023-07-20T00:49:53;18.30;99.90
14908;DHT22;7545;52.092;7.006;2023-07-20T00:52:20;18.20;99.90
14908;DHT22;7545;52.092;7.006;2023-07-20T00:54:47;18.30;99.90
14908;DHT22;7545;52.092;7.006;2023-07-20T00:57:14;18.20;99.90
14908;DHT22;7545;52.092;7.006;2023-07-20T00:59:40;18.20;99.90
14908;DHT22;7545;52.092;7.006;2023-07-20T01:02:06;18.20;99.90
14908;DHT22;7545;52.092;7.006;2023-07-20T01:04:32;18.20;99.90
14908;DHT22;7545;52.092;7.006;2023-07-20T01:07:03;18.10;99.90
14908;DHT22;7545;52.092;7.006;2023-07-20T01:12:42;17.70;99.90
14908;DHT22;7545;52.092;7.006;2023-07-20T01:15:09;17.60;99.90
14908;DHT22;7545;52.092;7.006;2023-07-20T01:17:35;17.50;99.90
14908;DHT22;7545;52.092;7.006;2023-07-20T01:20:01;17.40;99.90
14908;DHT22;7545;52.092;7.006;2023-07-20T01:33:38;17.20;99.90
14908;DHT22;7545;52.092;7.006;2023-07-20T01:36:06;17.20;99.90
14908;DHT22;7545;52.092;7.006;2023-07-20T01:38:32;17.30;99.90
14908;DHT22;7545;52.092;7.006;2023-07-20T01:40:58;17.30;99.90
14908;DHT22;7545;52.092;7.006;2023-07-20T01:43:24;17.30;99.90
14908;DHT22;7545;52.092;7.006;2023-07-20T01:45:50;17.10;99.90
14908;DHT22;7545;52.092;7.006;2023-07-20T01:48:15;17.00;99.90
14908;DHT22;7545;52.092;7.006;2023-07-20T01:50:41;17.10;99.90
14908;DHT22;7545;52.092;7.006;2023-07-20T01:53:07;17.10;99.90
14908;DHT22;7545;52.092;7.006;2023-07-20T01:55:32;17.10;99.90
14908;DHT22;7545;52.092;7.006;2023-07-20T01:58:01;17.20;99.90
14908;DHT22;7545;52.092;7.006;2023-07-20T02:00:27;17.20;99.90
14908;DHT22;7545;52.092;7.006;2023-07-20T02:02:52;17.30;99.90
14908;DHT22;7545;52.092;7.006;2023-07-20T02:05:18;17.30;99.90
14908;DHT22;7545;52.092;7.006;2023-07-20T02:07:44;17.30;99.90
14908;DHT22;7545;52.092;7.006;2023-07-20T02:10:10;17.30;99.90
14908;DHT22;7545;52.092;7.006;2023-07-20T02:12:35;17.20;99.90
14908;DHT22;7545;52.092;7.006;2023-07-20T02:15:02;17.30;99.90
14908;DHT22;7545;52.092;7.006;2023-07-20T02:17:27;17.30;99.90
14908;DHT22;7545;52.092;7.006;2023-07-20T02:19:53;17.30;99.90
14908;DHT22;7545;52.092;7.006;2023-07-20T02:22:20;17.30;99.90
14908;DHT22;7545;52.092;7.006;2023-07-20T02:24:46;17.20;99.90
14908;DHT22;7545;52.092;7.006;2023-07-20T02:27:12;17.20;99.90
14908;DHT22;7545;52.092;7.006;2023-07-20T02:29:38;17.20;99.90
14908;DHT22;7545;52.092;7.006;2023-07-20T02:32:04;17.20;99.90
14908;DHT22;7545;52.092;7.006;2023-07-20T02:34:29;17.10;99.90
14908;DHT22;7545;52.092;7.006;2023-07-20T02:36:55;17.10;99.90
14908;DHT22;7545;52.092;7.006;2023-07-20T02:39:29;17.10;99.90
14908;DHT22;7545;52.092;7.006;2023-07-20T02:41:55;17.20;99.90
14908;DHT22;7545;52.092;7.006;2023-07-20T02:44:20;17.00;99.90
14908;DHT22;7545;52.092;7.006;2023-07-20T02:46:46;17.00;99.90
14908;DHT22;7545;52.092;7.006;2023-07-20T02:49:17;17.00;99.90
14908;DHT22;7545;52.092;7.006;2023-07-20T02:51:43;16.90;99.90
14908;DHT22;7545;52.092;7.006;2023-07-20T02:54:09;16.90;99.90
14908;DHT22;7545;52.092;7.006;2023-07-20T02:56:34;16.90;99.90
14908;DHT22;7545;52.092;7.006;2023-07-20T02:59:01;16.90;99.90
14908;DHT22;7545;52.092;7.006;2023-07-20T03:01:27;16.90;99.90
14908;DHT22;7545;52.092;7.006;2023-07-20T03:03:55;16.90;99.90
14908;DHT22;7545;52.092;7.006;2023-07-20T03:06:21;16.90;99.90
14908;DHT22;7545;52.092;7.006;2023-07-20T03:08:46;16.90;99.90
14908;DHT22;7545;52.092;7.006;2023-07-20T03:11:19;16.80;99.90
14908;DHT22;7545;52.092;7.006;2023-07-20T03:13:46;16.90;99.90
14908;DHT22;7545;52.092;7.006;2023-07-20T03:16:15;16.80;99.90
14908;DHT22;7545;52.092;7.006;2023-07-20T03:18:43;16.80;99.90
14908;DHT22;7545;52.092;7.006;2023-07-20T03:21:09;16.80;99.90
14908;DHT22;7545;52.092;7.006;2023-07-20T03:23:39;16.80;99.90
14908;DHT22;7545;52.092;7.006;2023-07-20T03:26:05;16.80;99.90
14908;DHT22;7545;52.092;7.006;2023-07-20T03:28:30;16.80;99.90
14908;DHT22;7545;52.092;7.006;2023-07-20T03:30:56;16.70;99.90
14908;DHT22;7545;52.092;7.006;2023-07-20T03:33:24;16.70;99.90
14908;DHT22;7545;52.092;7.006;2023-07-20T03:35:50;16.80;99.90
14908;DHT22;7545;52.092;7.006;2023-07-20T03:38:16;16.80;99.90
14908;DHT22;7545;52.092;7.006;2023-07-20T03:40:50;16.80;99.90
14908;DHT22;7545;52.092;7.006;2023-07-20T03:43:16;16.80;99.90
14908;DHT22;7545;52.092;7.006;2023-07-20T03:45:41;16.90;99.90
14908;DHT22;7545;52.092;7.006;2023-07-20T03:48:18;16.80;99.90
14908;DHT22;7545;52.092;7.006;2023-07-20T03:50:45;16.90;99.90
14908;DHT22;7545;52.092;7.006;2023-07-20T03:53:11;16.90;99.90
14908;DHT22;7545;52.092;7.006;2023-07-20T03:55:37;16.90;99.90
14908;DHT22;7545;52.092;7.006;2023-07-20T03:58:02;16.90;99.90
14908;DHT22;7545;52.092;7.006;2023-07-20T04:00:28;16.90;99.90
14908;DHT22;7545;52.092;7.006;2023-07-20T04:02:54;16.90;99.90
14908;DHT22;7545;52.092;7.006;2023-07-20T04:05:20;16.80;99.90
14908;DHT22;7545;52.092;7.006;2023-07-20T04:07:45;16.90;99.90
14908;DHT22;7545;52.092;7.006;2023-07-20T04:10:11;16.80;99.90
14908;DHT22;7545;52.092;7.006;2023-07-20T04:12:37;16.90;99.90
14908;DHT22;7545;52.092;7.006;2023-07-20T04:15:02;16.80;99.90
14908;DHT22;7545;52.092;7.006;2023-07-20T04:17:29;16.80;99.90
14908;DHT22;7545;52.092;7.006;2023-07-20T04:19:54;16.80;99.90
14908;DHT22;7545;52.092;7.006;2023-07-20T04:22:20;16.70;99.90
14908;DHT22;7545;52.092;7.006;2023-07-20T04:24:46;16.70;99.90
14908;DHT22;7545;52.092;7.006;2023-07-20T04:27:12;16.70;99.90
14908;DHT22;7545;52.092;7.006;2023-07-20T04:29:37;16.70;99.90
14908;DHT22;7545;52.092;7.006;2023-07-20T04:32:03;16.80;99.90
14908;DHT22;7545;52.092;7.006;2023-07-20T04:34:29;16.80;99.90
14908;DHT22;7545;52.092;7.006;2023-07-20T04:36:54;16.80;99.90
14908;DHT22;7545;52.092;7.006;2023-07-20T04:39:20;16.80;99.90
14908;DHT22;7545;52.092;7.006;2023-07-20T04:41:46;16.80;99.90
14908;DHT22;7545;52.092;7.006;2023-07-20T04:44:12;16.80;99.90
14908;DHT22;7545;52.092;7.006;2023-07-20T04:46:39;16.80;99.90
14908;DHT22;7545;52.092;7.006;2023-07-20T04:49:05;16.80;99.90
14908;DHT22;7545;52.092;7.006;2023-07-20T04:51:31;16.80;99.90
14908;DHT22;7545;52.092;7.006;2023-07-20T04:53:57;16.80;99.90
14908;DHT22;7545;52.092;7.006;2023-07-20T04:56:23;16.80;99.90
14908;DHT22;7545;52.092;7.006;2023-07-20T04:58:48;16.80;99.90
14908;DHT22;7545;52.092;7.006;2023-07-20T05:01:14;16.80;99.90
14908;DHT22;7545;52.092;7.006;2023-07-20T05:03:40;16.80;99.90
14908;DHT22;7545;52.092;7.006;2023-07-20T05:06:05;16.80;99.90
14908;DHT22;7545;52.092;7.006;2023-07-20T05:08:31;16.80;99.90
14908;DHT22;7545;52.092;7.006;2023-07-20T05:10:56;16.80;99.90
14908;DHT22;7545;52.092;7.006;2023-07-20T05:13:23;16.80;99.90
14908;DHT22;7545;52.092;7.006;2023-07-20T05:15:52;16.90;99.90
14908;DHT22;7545;52.092;7.006;2023-07-20T05:18:18;16.80;99.90
14908;DHT22;7545;52.092;7.006;2023-07-20T05:20:47;16.80;99.90
14908;DHT22;7545;52.092;7.006;2023-07-20T05:23:13;16.80;99.90
14908;DHT22;7545;52.092;7.006;2023-07-20T05:25:38;16.70;99.90
14908;DHT22;7545;52.092;7.006;2023-07-20T05:28:04;16.70;99.90
14908;DHT22;7545;52.092;7.006;2023-07-20T05:30:30;16.60;99.90
14908;DHT22;7545;52.092;7.006;2023-07-20T05:32:55;16.60;99.90
14908;DHT22;7545;52.092;7.006;2023-07-20T05:35:21;16.60;99.90
14908;DHT22;7545;52.092;7.006;2023-07-20T05:37:47;16.60;99.90
14908;DHT22;7545;52.092;7.006;2023-07-20T05:40:14;16.60;99.90
14908;DHT22;7545;52.092;7.006;2023-07-20T05:42:47;16.70;99.90
14908;DHT22;7545;52.092;7.006;2023-07-20T05:45:17;16.80;99.90
14908;DHT22;7545;52.092;7.006;2023-07-20T05:47:44;16.80;99.90
14908;DHT22;7545;52.092;7.006;2023-07-20T05:50:10;16.90;99.90
14908;DHT22;7545;52.092;7.006;2023-07-20T05:52:36;16.90;99.90
14908;DHT22;7545;52.092;7.006;2023-07-20T05:55:03;16.90;99.90
14908;DHT22;7545;52.092;7.006;2023-07-20T05:57:29;17.00;99.90
14908;DHT22;7545;52.092;7.006;2023-07-20T05:59:54;16.90;99.90
14908;DHT22;7545;52.092;7.006;2023-07-20T06:02:20;16.90;99.90
14908;DHT22;7545;52.092;7.006;2023-07-20T06:04:45;16.90;99.90
14908;DHT22;7545;52.092;7.006;2023-07-20T06:07:11;16.90;99.90
14908;DHT22;7545;52.092;7.006;2023-07-20T06:09:36;16.90;99.90
14908;DHT22;7545;52.092;7.006;2023-07-20T06:12:02;16.80;99.90
14908;DHT22;7545;52.092;7.006;2023-07-20T06:14:28;16.80;99.90
14908;DHT22;7545;52.092;7.006;2023-07-20T06:16:53;16.70;99.90
14908;DHT22;7545;52.092;7.006;2023-07-20T06:19:19;16.70;99.90
14908;DHT22;7545;52.092;7.006;2023-07-20T06:21:45;16.70;99.90
14908;DHT22;7545;52.092;7.006;2023-07-20T06:24:10;16.70;99.90
14908;DHT22;7545;52.092;7.006;2023-07-20T06:26:36;16.80;99.90
14908;DHT22;7545;52.092;7.006;2023-07-20T06:29:05;16.80;99.90
14908;DHT22;7545;52.092;7.006;2023-07-20T06:31:37;16.90;99.90
14908;DHT22;7545;52.092;7.006;2023-07-20T06:34:03;16.90;99.90
14908;DHT22;7545;52.092;7.006;2023-07-20T06:36:29;17.00;99.90
14908;DHT22;7545;52.092;7.006;2023-07-20T06:38:56;17.00;99.90
14908;DHT22;7545;52.092;7.006;2023-07-20T06:41:21;17.00;99.90
14908;DHT22;7545;52.092;7.006;2023-07-20T06:43:48;17.10;99.90
14908;DHT22;7545;52.092;7.006;2023-07-20T06:46:13;17.10;99.90
14908;DHT22;7545;52.092;7.006;2023-07-20T06:48:39;17.20;99.90
14908;DHT22;7545;52.092;7.006;2023-07-20T06:51:05;17.20;99.90
14908;DHT22;7545;52.092;7.006;2023-07-20T06:53:31;17.30;99.90
14908;DHT22;7545;52.092;7.006;2023-07-20T06:55:56;17.40;99.90
14908;DHT22;7545;52.092;7.006;2023-07-20T06:58:23;17.40;99.90
14908;DHT22;7545;52.092;7.006;2023-07-20T07:00:49;17.40;99.90
14908;DHT22;7545;52.092;7.006;2023-07-20T07:03:15;17.50;99.90
14908;DHT22;7545;52.092;7.006;2023-07-20T07:05:40;17.50;99.90
14908;DHT22;7545;52.092;7.006;2023-07-20T07:08:06;17.40;99.90
14908;DHT22;7545;52.092;7.006;2023-07-20T07:10:32;17.40;99.90
14908;DHT22;7545;52.092;7.006;2023-07-20T07:12:58;17.40;99.90
14908;DHT22;7545;52.092;7.006;2023-07-20T07:15:24;17.30;99.90
14908;DHT22;7545;52.092;7.006;2023-07-20T07:17:50;17.30;99.90
14908;DHT22;7545;52.092;7.006;2023-07-20T07:20:16;17.20;99.90
14908;DHT22;7545;52.092;7.006;2023-07-20T07:22:42;17.20;99.90
14908;DHT22;7545;52.092;7.006;2023-07-20T07:25:09;17.20;99.90
14908;DHT22;7545;52.092;7.006;2023-07-20T07:27:35;17.20;99.90
14908;DHT22;7545;52.092;7.006;2023-07-20T07:30:01;17.20;99.90
14908;DHT22;7545;52.092;7.006;2023-07-20T07:32:27;17.30;99.90
14908;DHT22;7545;52.092;7.006;2023-07-20T07:34:53;17.40;99.90
14908;DHT22;7545;52.092;7.006;2023-07-20T07:37:19;17.50;99.90
14908;DHT22;7545;52.092;7.006;2023-07-20T07:39:45;17.40;99.90
14908;DHT22;7545;52.092;7.006;2023-07-20T07:42:11;17.30;99.90
14908;DHT22;7545;52.092;7.006;2023-07-20T07:44:37;17.40;99.90
14908;DHT22;7545;52.092;7.006;2023-07-20T07:47:03;17.40;99.90
14908;DHT22;7545;52.092;7.006;2023-07-20T07:49:29;17.50;99.90
14908;DHT22;7545;52.092;7.006;2023-07-20T07:51:54;17.60;99.90
14908;DHT22;7545;52.092;7.006;2023-07-20T07:54:20;17.60;99.90
14908;DHT22;7545;52.092;7.006;2023-07-20T07:56:45;17.60;99.90
14908;DHT22;7545;52.092;7.006;2023-07-20T07:59:11;17.70;99.90
14908;DHT22;7545;52.092;7.006;2023-07-20T08:01:37;17.70;99.90
14908;DHT22;7545;52.092;7.006;2023-07-20T08:04:02;17.70;99.90
14908;DHT22;7545;52.092;7.006;2023-07-20T08:06:29;17.70;99.90
14908;DHT22;7545;52.092;7.006;2023-07-20T08:08:54;17.80;99.90
14908;DHT22;7545;52.092;7.006;2023-07-20T08:11:20;17.80;99.90
14908;DHT22;7545;52.092;7.006;2023-07-20T08:13:46;17.80;99.90
14908;DHT22;7545;52.092;7.006;2023-07-20T08:16:11;17.90;99.90
14908;DHT22;7545;52.092;7.006;2023-07-20T08:18:37;18.00;99.90
14908;DHT22;7545;52.092;7.006;2023-07-20T08:21:02;18.00;99.90
14908;DHT22;7545;52.092;7.006;2023-07-20T08:23:28;18.10;99.90
14908;DHT22;7545;52.092;7.006;2023-07-20T08:25:54;18.10;99.90
14908;DHT22;7545;52.092;7.006;2023-07-20T08:28:20;18.20;99.90
14908;DHT22;7545;52.092;7.006;2023-07-20T08:30:47;18.20;99.90
14908;DHT22;7545;52.092;7.006;2023-07-20T08:33:17;18.30;99.90
14908;DHT22;7545;52.092;7.006;2023-07-20T08:35:46;18.40;99.90
14908;DHT22;7545;52.092;7.006;2023-07-20T08:38:13;18.40;99.90
14908;DHT22;7545;52.092;7.006;2023-07-20T08:40:40;18.50;99.90
14908;DHT22;7545;52.092;7.006;2023-07-20T08:43:06;18.60;99.90
14908;DHT22;7545;52.092;7.006;2023-07-20T08:45:36;18.80;99.90
14908;DHT22;7545;52.092;7.006;2023-07-20T08:48:05;18.80;99.90
14908;DHT22;7545;52.092;7.006;2023-07-20T08:50:31;18.80;99.90
14908;DHT22;7545;52.092;7.006;2023-07-20T08:52:58;18.80;99.90
14908;DHT22;7545;52.092;7.006;2023-07-20T08:55:26;18.80;99.90
14908;DHT22;7545;52.092;7.006;2023-07-20T08:57:54;18.80;99.90
14908;DHT22;7545;52.092;7.006;2023-07-20T09:00:21;18.80;99.90
14908;DHT22;7545;52.092;7.006;2023-07-20T09:02:49;18.90;99.90
14908;DHT22;7545;52.092;7.006;2023-07-20T09:05:16;19.00;99.90
14908;DHT22;7545;52.092;7.006;2023-07-20T09:07:41;19.00;99.90
14908;DHT22;7545;52.092;7.006;2023-07-20T09:10:08;19.20;99.90
14908;DHT22;7545;52.092;7.006;2023-07-20T09:12:38;19.40;99.90
14908;DHT22;7545;52.092;7.006;2023-07-20T09:15:05;19.40;99.90
14908;DHT22;7545;52.092;7.006;2023-07-20T09:17:31;19.60;99.90
14908;DHT22;7545;52.092;7.006;2023-07-20T09:19:57;19.40;99.90
14908;DHT22;7545;52.092;7.006;2023-07-20T09:22:29;19.20;99.90
14908;DHT22;7545;52.092;7.006;2023-07-20T09:24:56;19.20;99.90
14908;DHT22;7545;52.092;7.006;2023-07-20T09:27:21;19.20;99.90
14908;DHT22;7545;52.092;7.006;2023-07-20T09:29:51;19.30;99.90
14908;DHT22;7545;52.092;7.006;2023-07-20T09:32:21;19.40;99.90
14908;DHT22;7545;52.092;7.006;2023-07-20T09:34:47;19.60;99.90
14908;DHT22;7545;52.092;7.006;2023-07-20T09:37:20;19.70;99.90
14908;DHT22;7545;52.092;7.006;2023-07-20T09:39:46;19.70;99.90
14908;DHT22;7545;52.092;7.006;2023-07-20T09:42:12;19.70;99.90
14908;DHT22;7545;52.092;7.006;2023-07-20T09:44:39;19.70;99.90
14908;DHT22;7545;52.092;7.006;2023-07-20T09:47:05;19.70;99.90
14908;DHT22;7545;52.092;7.006;2023-07-20T09:49:31;19.70;99.90
14908;DHT22;7545;52.092;7.006;2023-07-20T09:52:00;19.70;99.90
14908;DHT22;7545;52.092;7.006;2023-07-20T09:54:28;19.70;99.90
14908;DHT22;7545;52.092;7.006;2023-07-20T09:56:55;19.60;99.90
14908;DHT22;7545;52.092;7.006;2023-07-20T09:59:21;19.60;99.90
14908;DHT22;7545;52.092;7.006;2023-07-20T10:01:48;19.70;99.90
14908;DHT22;7545;52.092;7.006;2023-07-20T10:04:14;19.90;99.90
14908;DHT22;7545;52.092;7.006;2023-07-20T10:06:42;20.00;99.90
14908;DHT22;7545;52.092;7.006;2023-07-20T10:09:10;20.20;99.90
14908;DHT22;7545;52.092;7.006;2023-07-20T10:11:41;20.40;99.90
14908;DHT22;7545;52.092;7.006;2023-07-20T10:14:08;20.60;99.90
14908;DHT22;7545;52.092;7.006;2023-07-20T10:16:43;20.70;99.90
14908;DHT22;7545;52.092;7.006;2023-07-20T10:19:26;20.80;99.90
14908;DHT22;7545;52.092;7.006;2023-07-20T10:22:00;20.90;99.90
14908;DHT22;7545;52.092;7.006;2023-07-20T10:24:29;21.00;99.90
14908;DHT22;7545;52.092;7.006;2023-07-20T10:26:56;21.00;99.90
14908;DHT22;7545;52.092;7.006;2023-07-20T10:29:22;21.10;99.90
14908;DHT22;7545;52.092;7.006;2023-07-20T10:31:49;21.10;99.90
14908;DHT22;7545;52.092;7.006;2023-07-20T10:34:15;21.10;99.90
14908;DHT22;7545;52.092;7.006;2023-07-20T10:36:45;21.30;99.90
14908;DHT22;7545;52.092;7.006;2023-07-20T10:39:28;21.40;99.90
14908;DHT22;7545;52.092;7.006;2023-07-20T10:42:06;21.60;99.90
14908;DHT22;7545;52.092;7.006;2023-07-20T10:44:33;21.70;99.90
14908;DHT22;7545;52.092;7.006;2023-07-20T10:47:03;21.80;99.90
14908;DHT22;7545;52.092;7.006;2023-07-20T10:49:33;22.00;99.90
14908;DHT22;7545;52.092;7.006;2023-07-20T10:52:00;22.10;99.90
14908;DHT22;7545;52.092;7.006;2023-07-20T10:54:47;22.10;99.90
14908;DHT22;7545;52.092;7.006;2023-07-20T10:57:28;22.30;99.90
14908;DHT22;7545;52.092;7.006;2023-07-20T11:00:13;22.40;99.90
14908;DHT22;7545;52.092;7.006;2023-07-20T11:02:47;22.50;99.90
14908;DHT22;7545;52.092;7.006;2023-07-20T11:08:03;22.30;99.90
14908;DHT22;7545;52.092;7.006;2023-07-20T11:10:29;22.20;99.90
14908;DHT22;7545;52.092;7.006;2023-07-20T11:13:17;22.30;99.90
14908;DHT22;7545;52.092;7.006;2023-07-20T11:15:46;22.30;99.90
14908;DHT22;7545;52.092;7.006;2023-07-20T11:18:13;22.50;99.90
14908;DHT22;7545;52.092;7.006;2023-07-20T11:20:39;22.60;99.90
14908;DHT22;7545;52.092;7.006;2023-07-20T11:23:08;22.70;99.90
14908;DHT22;7545;52.092;7.006;2023-07-20T11:25:40;22.80;99.90
14908;DHT22;7545;52.092;7.006;2023-07-20T11:28:09;22.90;99.90
14908;DHT22;7545;52.092;7.006;2023-07-20T11:30:37;23.00;99.90
14908;DHT22;7545;52.092;7.006;2023-07-20T11:33:03;23.20;99.90
14908;DHT22;7545;52.092;7.006;2023-07-20T11:35:28;23.30;99.90
14908;DHT22;7545;52.092;7.006;2023-07-20T11:37:55;23.40;99.90
14908;DHT22;7545;52.092;7.006;2023-07-20T11:40:22;23.40;99.90
14908;DHT22;7545;52.092;7.006;2023-07-20T11:42:48;23.30;99.90
14908;DHT22;7545;52.092;7.006;2023-07-20T11:45:19;23.20;99.90
14908;DHT22;7545;52.092;7.006;2023-07-20T11:47:45;23.00;99.90
14908;DHT22;7545;52.092;7.006;2023-07-20T11:50:10;22.80;99.90
14908;DHT22;7545;52.092;7.006;2023-07-20T11:52:39;22.70;99.90
14908;DHT22;7545;52.092;7.006;2023-07-20T11:55:06;22.80;99.90
14908;DHT22;7545;52.092;7.006;2023-07-20T11:57:32;22.90;99.90
14908;DHT22;7545;52.092;7.006;2023-07-20T12:00:02;23.10;99.90
14908;DHT22;7545;52.092;7.006;2023-07-20T12:02:32;23.20;99.90
14908;DHT22;7545;52.092;7.006;2023-07-20T12:04:58;23.20;99.90
14908;DHT22;7545;52.092;7.006;2023-07-20T12:07:27;23.00;99.90
14908;DHT22;7545;52.092;7.006;2023-07-20T12:10:03;22.90;99.90
14908;DHT22;7545;52.092;7.006;2023-07-20T12:12:35;22.70;99.90
14908;DHT22;7545;52.092;7.006;2023-07-20T12:17:50;22.50;99.90
14908;DHT22;7545;52.092;7.006;2023-07-20T12:20:27;22.50;99.90
14908;DHT22;7545;52.092;7.006;2023-07-20T12:22:55;22.60;99.90
14908;DHT22;7545;52.092;7.006;2023-07-20T12:25:20;22.70;99.90
14908;DHT22;7545;52.092;7.006;2023-07-20T12:27:48;22.70;99.90
14908;DHT22;7545;52.092;7.006;2023-07-20T12:30:14;22.70;99.90
14908;DHT22;7545;52.092;7.006;2023-07-20T12:32:40;22.60;99.90
14908;DHT22;7545;52.092;7.006;2023-07-20T12:35:06;22.50;99.90
14908;DHT22;7545;52.092;7.006;2023-07-20T12:37:32;22.50;99.90
14908;DHT22;7545;52.092;7.006;2023-07-20T12:39:57;22.50;99.90
14908;DHT22;7545;52.092;7.006;2023-07-20T12:42:23;22.50;99.90
14908;DHT22;7545;52.092;7.006;2023-07-20T12:44:49;22.60;99.90
14908;DHT22;7545;52.092;7.006;2023-07-20T12:47:16;22.60;99.90
14908;DHT22;7545;52.092;7.006;2023-07-20T12:49:42;22.80;99.90
14908;DHT22;7545;52.092;7.006;2023-07-20T12:52:10;23.10;99.90
14908;DHT22;7545;52.092;7.006;2023-07-20T12:54:36;23.30;99.90
14908;DHT22;7545;52.092;7.006;2023-07-20T12:57:02;23.50;99.90
14908;DHT22;7545;52.092;7.006;2023-07-20T12:59:29;23.70;99.90
14908;DHT22;7545;52.092;7.006;2023-07-20T13:01:54;23.80;99.90
14908;DHT22;7545;52.092;7.006;2023-07-20T13:04:20;24.00;99.90
14908;DHT22;7545;52.092;7.006;2023-07-20T13:06:45;24.10;99.90
14908;DHT22;7545;52.092;7.006;2023-07-20T13:09:11;24.30;99.90
14908;DHT22;7545;52.092;7.006;2023-07-20T13:11:37;24.50;99.90
14908;DHT22;7545;52.092;7.006;2023-07-20T13:14:02;24.60;99.90
14908;DHT22;7545;52.092;7.006;2023-07-20T13:16:28;24.80;99.90
14908;DHT22;7545;52.092;7.006;2023-07-20T13:18:54;24.80;99.90
14908;DHT22;7545;52.092;7.006;2023-07-20T13:21:19;24.80;99.90
14908;DHT22;7545;52.092;7.006;2023-07-20T13:23:48;24.80;99.90
14908;DHT22;7545;52.092;7.006;2023-07-20T13:26:15;25.00;99.90
14908;DHT22;7545;52.092;7.006;2023-07-20T13:28:40;25.10;99.90
14908;DHT22;7545;52.092;7.006;2023-07-20T13:31:06;25.10;99.90
14908;DHT22;7545;52.092;7.006;2023-07-20T13:33:33;25.00;99.90
14908;DHT22;7545;52.092;7.006;2023-07-20T13:35:59;24.90;99.90
14908;DHT22;7545;52.092;7.006;2023-07-20T13:38:25;24.80;99.90
14908;DHT22;7545;52.092;7.006;2023-07-20T13:40:50;24.60;99.90
14908;DHT22;7545;52.092;7.006;2023-07-20T13:43:16;24.50;99.90
14908;DHT22;7545;52.092;7.006;2023-07-20T13:45:42;24.30;99.90
14908;DHT22;7545;52.092;7.006;2023-07-20T13:48:08;24.10;99.90
14908;DHT22;7545;52.092;7.006;2023-07-20T13:50:34;23.90;99.90
14908;DHT22;7545;52.092;7.006;2023-07-20T13:53:00;23.80;99.90
14908;DHT22;7545;52.092;7.006;2023-07-20T13:55:28;23.60;99.90
14908;DHT22;7545;52.092;7.006;2023-07-20T13:57:53;23.40;99.90
14908;DHT22;7545;52.092;7.006;2023-07-20T14:00:19;23.30;99.90
14908;DHT22;7545;52.092;7.006;2023-07-20T14:02:45;23.20;99.90
14908;DHT22;7545;52.092;7.006;2023-07-20T14:05:10;23.20;99.90
14908;DHT22;7545;52.092;7.006;2023-07-20T14:07:36;23.20;99.90
14908;DHT22;7545;52.092;7.006;2023-07-20T14:10:02;23.20;99.90
14908;DHT22;7545;52.092;7.006;2023-07-20T14:12:28;23.10;99.90
14908;DHT22;7545;52.092;7.006;2023-07-20T14:14:54;23.10;99.90
14908;DHT22;7545;52.092;7.006;2023-07-20T14:17:21;23.00;99.90
14908;DHT22;7545;52.092;7.006;2023-07-20T14:19:47;22.80;99.90
14908;DHT22;7545;52.092;7.006;2023-07-20T14:22:15;22.60;99.90
14908;DHT22;7545;52.092;7.006;2023-07-20T14:24:41;22.40;99.90
14908;DHT22;7545;52.092;7.006;2023-07-20T14:27:06;22.30;99.90
14908;DHT22;7545;52.092;7.006;2023-07-20T14:29:32;22.20;99.90
14908;DHT22;7545;52.092;7.006;2023-07-20T14:31:58;22.20;99.90
14908;DHT22;7545;52.092;7.006;2023-07-20T14:34:24;22.20;99.90
14908;DHT22;7545;52.092;7.006;2023-07-20T14:36:49;22.20;99.90
14908;DHT22;7545;52.092;7.006;2023-07-20T14:39:15;22.30;99.90
14908;DHT22;7545;52.092;7.006;2023-07-20T14:41:41;22.40;99.90
14908;DHT22;7545;52.092;7.006;2023-07-20T14:44:06;22.40;99.90
14908;DHT22;7545;52.092;7.006;2023-07-20T14:46:32;22.40;99.90
14908;DHT22;7545;52.092;7.006;2023-07-20T14:48:57;22.50;99.90
14908;DHT22;7545;52.092;7.006;2023-07-20T14:51:24;22.70;99.90
14908;DHT22;7545;52.092;7.006;2023-07-20T14:53:49;22.80;99.90
14908;DHT22;7545;52.092;7.006;2023-07-20T14:56:16;23.00;99.90
14908;DHT22;7545;52.092;7.006;2023-07-20T14:58:41;23.10;99.90
14908;DHT22;7545;52.092;7.006;2023-07-20T15:01:07;23.20;99.90
14908;DHT22;7545;52.092;7.006;2023-07-20T15:03:32;23.20;99.90
14908;DHT22;7545;52.092;7.006;2023-07-20T15:05:58;23.30;99.90
14908;DHT22;7545;52.092;7.006;2023-07-20T15:08:24;23.40;99.90
14908;DHT22;7545;52.092;7.006;2023-07-20T15:10:49;23.60;99.90
14908;DHT22;7545;52.092;7.006;2023-07-20T15:13:15;23.60;99.90
14908;DHT22;7545;52.092;7.006;2023-07-20T15:15:41;23.60;99.90
14908;DHT22;7545;52.092;7.006;2023-07-20T15:18:08;23.40;99.90
14908;DHT22;7545;52.092;7.006;2023-07-20T15:20:34;23.30;99.90
14908;DHT22;7545;52.092;7.006;2023-07-20T15:22:59;23.30;99.90
14908;DHT22;7545;52.092;7.006;2023-07-20T15:25:25;23.30;99.90
14908;DHT22;7545;52.092;7.006;2023-07-20T15:27:51;23.20;99.90
14908;DHT22;7545;52.092;7.006;2023-07-20T15:30:17;23.30;99.90
14908;DHT22;7545;52.092;7.006;2023-07-20T15:32:43;23.20;99.90
14908;DHT22;7545;52.092;7.006;2023-07-20T15:35:09;23.30;99.90
14908;DHT22;7545;52.092;7.006;2023-07-20T15:37:36;23.30;99.90
14908;DHT22;7545;52.092;7.006;2023-07-20T15:40:02;23.30;99.90
14908;DHT22;7545;52.092;7.006;2023-07-20T15:42:31;23.30;99.90
14908;DHT22;7545;52.092;7.006;2023-07-20T15:44:57;23.20;99.90
14908;DHT22;7545;52.092;7.006;2023-07-20T15:47:23;23.10;99.90
14908;DHT22;7545;52.092;7.006;2023-07-20T15:49:49;23.10;99.90
14908;DHT22;7545;52.092;7.006;2023-07-20T15:52:15;23.00;99.90
14908;DHT22;7545;52.092;7.006;2023-07-20T15:54:41;22.90;99.90
14908;DHT22;7545;52.092;7.006;2023-07-20T15:57:07;22.90;99.90
14908;DHT22;7545;52.092;7.006;2023-07-20T15:59:33;22.80;99.90
14908;DHT22;7545;52.092;7.006;2023-07-20T16:02:00;22.80;99.90